Terminal Aerodrome Forecast
Issued by NWS Twin Cities, MN

Home | Current Version | Previous Version | Graphics & Text | Print | Product List | Glossary On
Versions: 1 2 3 4 5 6 7 8 9 10 11 12 13 14 15 16 17 18 19 20 21
000
FTUS43 KMPX 111004 AAB
TAFSTC
TAF AMD
KSTC 111004Z 1110/1206 16005KT P6SM SCT020 OVC040
      TEMPO 1110/1112 4SM -SNPL
     FM111400 32010KT P6SM VCSH OVC015
     FM111700 33019G32KT P6SM BKN020
     FM112200 32013G24KT P6SM SCT025=

USA.gov is the U.S. government's official web portal to all federal, state and local government web resources and services.